Time;durP1;ratioP1;P1;durP2;ratioP2;P2;SDS_P1;SDS_P2;PMS_P1;PMS_P2;Temp;Humidity;BMP_temperature;BMP_pressure;BME280_temperature;BME280_humidity;BME280_pressure;Samples;Min_cycle;Max_cycle;Signal;HPM_P1;HPM_P2
2022/01/22 00:00:28;;;;;;;5.03;2.27;;;-0.20;99.90;;;;;;5030582;28;20065;-81
2022/01/22 00:02:54;;;;;;;6.23;2.40;;;-0.20;99.90;;;;;;5029308;28;20025;-81
2022/01/22 00:05:21;;;;;;;7.17;2.67;;;-0.20;99.90;;;;;;5028714;28;20045;-78
2022/01/22 00:07:47;;;;;;;9.80;2.73;;;-0.10;99.90;;;;;;5030300;28;20067;-81
2022/01/22 00:10:14;;;;;;;5.63;2.67;;;-0.20;99.90;;;;;;5030115;28;20409;-79
2022/01/22 00:15:31;;;;;;;5.73;2.30;;;0.00;99.90;;;;;;5019295;28;20443;-80
2022/01/22 00:17:57;;;;;;;4.97;2.43;;;0.00;99.90;;;;;;5030454;28;20493;-80
2022/01/22 00:20:26;;;;;;;8.40;2.70;;;0.10;99.90;;;;;;5030212;28;20077;-80
2022/01/22 00:22:52;;;;;;;8.27;2.13;;;0.00;99.90;;;;;;5030034;28;20364;-80
2022/01/22 00:25:20;;;;;;;7.77;2.30;;;0.00;99.90;;;;;;5030135;28;20501;-80
2022/01/22 00:27:47;;;;;;;4.60;2.27;;;0.10;99.90;;;;;;5030342;28;20489;-80
2022/01/22 00:30:17;;;;;;;4.77;2.23;;;0.10;99.90;;;;;;5029913;28;20041;-80
2022/01/22 00:32:42;;;;;;;4.37;2.30;;;0.10;99.90;;;;;;5030041;28;20036;-80
2022/01/22 00:35:08;;;;;;;5.30;2.07;;;0.10;99.90;;;;;;5029987;28;20026;-80
2022/01/22 00:37:36;;;;;;;5.47;2.30;;;0.10;99.90;;;;;;5030132;28;20029;-80
2022/01/22 00:40:04;;;;;;;7.53;2.20;;;0.10;99.90;;;;;;5030063;28;20124;-80
2022/01/22 00:42:32;;;;;;;5.07;2.20;;;0.20;99.90;;;;;;5030057;28;20398;-80
2022/01/22 00:44:58;;;;;;;8.07;2.50;;;0.20;99.90;;;;;;5029793;28;20109;-80
2022/01/22 00:47:23;;;;;;;5.00;2.23;;;0.20;99.90;;;;;;5028501;28;20437;-80
2022/01/22 00:49:49;;;;;;;5.47;2.33;;;0.10;99.90;;;;;;5029760;28;20037;-81
2022/01/22 00:52:15;;;;;;;3.33;2.00;;;0.10;99.90;;;;;;5030132;28;20159;-81
2022/01/22 00:54:41;;;;;;;6.37;2.33;;;0.10;99.90;;;;;;5029624;28;20096;-80
2022/01/22 00:57:06;;;;;;;5.97;2.10;;;0.00;99.90;;;;;;5030070;28;20121;-80
2022/01/22 00:59:32;;;;;;;5.17;1.97;;;0.10;99.90;;;;;;5028474;28;20021;-80
2022/01/22 01:01:58;;;;;;;5.80;2.07;;;0.10;99.90;;;;;;5028538;28;20026;-80
2022/01/22 01:04:24;;;;;;;4.93;2.00;;;0.10;99.90;;;;;;5028279;28;20093;-80
2022/01/22 01:06:50;;;;;;;5.43;1.70;;;0.10;99.90;;;;;;5028095;28;20034;-78
2022/01/22 01:09:17;;;;;;;4.83;2.57;;;0.20;99.90;;;;;;5028054;28;20034;-81
2022/01/22 01:11:50;;;;;;;3.43;1.87;;;0.20;99.90;;;;;;5029950;28;20017;-80
2022/01/22 01:14:23;;;;;;;3.57;1.87;;;0.20;99.90;;;;;;5029648;28;20029;-79
2022/01/22 01:33:31;;;;;;;5.60;1.93;;;0.30;99.90;;;;;;5029910;28;20525;-80
2022/01/22 01:35:57;;;;;;;3.67;1.83;;;0.30;99.90;;;;;;5029604;28;20027;-80
2022/01/22 01:38:23;;;;;;;6.00;2.33;;;0.40;99.90;;;;;;5029288;28;20089;-80
2022/01/22 01:41:06;;;;;;;4.90;1.87;;;0.50;99.90;;;;;;5029595;28;20079;-80
2022/01/22 01:43:36;;;;;;;4.23;2.07;;;0.50;99.90;;;;;;5029516;28;20113;-80
2022/01/22 01:46:01;;;;;;;3.73;1.80;;;0.40;99.90;;;;;;5027889;28;20068;-79
2022/01/22 01:48:31;;;;;;;5.70;1.90;;;0.40;99.90;;;;;;5029376;28;20049;-79
2022/01/22 01:50:59;;;;;;;4.37;1.63;;;0.40;99.90;;;;;;5029397;28;20076;-79
2022/01/22 01:53:49;;;;;;;4.03;1.67;;;0.40;99.90;;;;;;5032843;28;20010;-80
2022/01/22 01:58:59;;;;;;;4.23;1.60;;;0.30;99.90;;;;;;5032431;28;20032;-80
2022/01/22 02:01:24;;;;;;;4.53;1.57;;;0.40;99.90;;;;;;5032651;28;20440;-80
2022/01/22 02:03:50;;;;;;;4.07;2.20;;;0.40;99.90;;;;;;5032155;28;20452;-80
2022/01/22 02:06:16;;;;;;;3.20;1.57;;;0.40;99.90;;;;;;5032923;28;20035;-80
2022/01/22 02:08:41;;;;;;;3.90;1.70;;;0.30;99.90;;;;;;5032544;28;20057;-80
2022/01/22 02:11:08;;;;;;;4.50;1.90;;;0.30;99.90;;;;;;5032544;28;20029;-80
2022/01/22 02:24:18;;;;;;;4.93;1.90;;;0.50;99.90;;;;;;5032197;28;20156;-79
2022/01/22 02:26:49;;;;;;;4.90;2.30;;;0.40;99.90;;;;;;5032007;28;20024;-80
2022/01/22 02:29:15;;;;;;;3.70;1.57;;;0.30;99.90;;;;;;5031912;28;20025;-80
2022/01/22 02:31:58;;;;;;;6.10;2.23;;;0.40;99.90;;;;;;5029594;28;20025;-79
2022/01/22 02:34:36;;;;;;;3.13;1.80;;;0.40;99.90;;;;;;5012268;28;20029;-80
2022/01/22 02:37:10;;;;;;;5.67;1.73;;;0.50;99.90;;;;;;5012305;28;20032;-80
2022/01/22 02:39:41;;;;;;;2.73;1.70;;;0.50;99.90;;;;;;5012203;28;20054;-80
2022/01/22 02:42:07;;;;;;;4.23;2.10;;;0.50;99.90;;;;;;5011084;28;20029;-80
2022/01/22 02:44:34;;;;;;;4.80;1.80;;;0.60;99.90;;;;;;5023792;28;20033;-80
2022/01/22 02:47:01;;;;;;;3.97;1.73;;;0.60;99.90;;;;;;5032002;28;20021;-80
2022/01/22 02:49:27;;;;;;;5.73;2.10;;;0.50;99.90;;;;;;5030419;28;20029;-80
2022/01/22 02:51:58;;;;;;;6.77;1.90;;;0.50;99.90;;;;;;5032060;28;20509;-80
2022/01/22 02:54:24;;;;;;;3.50;2.03;;;0.50;99.90;;;;;;5030668;28;20661;-80
2022/01/22 02:56:49;;;;;;;3.57;2.10;;;0.50;99.90;;;;;;5031848;28;20040;-80
2022/01/22 02:59:21;;;;;;;3.60;2.10;;;0.50;99.90;;;;;;5031301;28;20635;-80
2022/01/22 03:01:46;;;;;;;4.77;1.97;;;0.60;99.90;;;;;;5030448;28;20033;-80
2022/01/22 03:04:12;;;;;;;3.13;1.70;;;0.60;99.90;;;;;;5030330;28;20057;-80
2022/01/22 03:06:37;;;;;;;4.33;2.30;;;0.60;99.90;;;;;;5031660;28;20095;-80
2022/01/22 03:09:07;;;;;;;5.60;1.60;;;0.60;99.90;;;;;;5031129;28;20080;-80
2022/01/22 03:11:41;;;;;;;5.90;2.30;;;0.60;99.90;;;;;;5031664;28;20017;-80
2022/01/22 03:16:56;;;;;;;2.60;1.80;;;0.70;99.90;;;;;;5031508;28;20451;-80
2022/01/22 03:19:56;;;;;;;6.37;2.20;;;0.70;99.90;;;;;;5030977;28;20034;-80
2022/01/22 03:22:27;;;;;;;5.57;2.10;;;0.70;99.90;;;;;;5031295;28;20036;-80
2022/01/22 03:27:37;;;;;;;5.10;2.10;;;0.70;99.90;;;;;;5031140;28;20090;-79
2022/01/22 03:30:04;;;;;;;3.97;2.47;;;0.70;99.90;;;;;;5029442;28;20029;-80
2022/01/22 03:32:36;;;;;;;5.30;2.30;;;0.70;99.90;;;;;;5030824;28;20044;-79
2022/01/22 03:35:12;;;;;;;8.63;2.20;;;0.70;99.90;;;;;;5030853;28;20386;-79
2022/01/22 03:37:39;;;;;;;5.37;2.10;;;0.70;99.90;;;;;;5031257;28;20026;-79
2022/01/22 03:40:06;;;;;;;3.83;2.30;;;0.80;99.90;;;;;;5030824;28;20029;-80
2022/01/22 03:42:34;;;;;;;6.80;2.90;;;0.70;99.90;;;;;;5029798;28;20095;-80
2022/01/22 03:45:05;;;;;;;5.67;2.37;;;0.60;99.90;;;;;;5026903;28;20037;-80
2022/01/22 03:47:31;;;;;;;5.13;2.30;;;0.50;99.90;;;;;;5030912;28;20155;-80
2022/01/22 03:49:57;;;;;;;9.83;2.77;;;0.60;99.90;;;;;;5030478;28;20119;-80
2022/01/22 03:52:22;;;;;;;5.50;2.67;;;0.60;99.90;;;;;;5030856;28;20242;-80
2022/01/22 03:54:48;;;;;;;5.03;2.90;;;0.50;99.90;;;;;;5030010;28;20188;-80
2022/01/22 03:57:14;;;;;;;5.67;2.83;;;0.40;99.90;;;;;;5030524;28;20111;-80
2022/01/22 03:59:39;;;;;;;6.53;3.10;;;0.40;99.90;;;;;;5030827;28;20071;-81
2022/01/22 04:05:01;;;;;;;5.90;3.00;;;0.40;99.90;;;;;;5021603;28;20048;-80
2022/01/22 04:10:07;;;;;;;6.17;3.20;;;0.30;99.90;;;;;;5030630;28;20036;-80
2022/01/22 04:15:02;;;;;;;9.93;4.30;;;0.30;99.90;;;;;;5030050;28;20490;-80
2022/01/22 04:25:27;;;;;;;5.70;3.53;;;0.30;99.90;;;;;;5030100;28;20196;-80
2022/01/22 04:27:53;;;;;;;7.97;4.20;;;0.30;99.90;;;;;;5029822;28;20083;-81
2022/01/22 04:30:20;;;;;;;7.33;3.50;;;0.20;99.90;;;;;;5029906;28;20036;-80
2022/01/22 04:32:46;;;;;;;6.97;3.77;;;0.20;99.90;;;;;;5030141;28;20538;-80
2022/01/22 04:35:12;;;;;;;6.57;3.90;;;0.20;99.90;;;;;;5028593;28;20184;-80
2022/01/22 04:37:38;;;;;;;6.13;3.83;;;0.20;99.90;;;;;;5030153;28;20036;-80
2022/01/22 04:40:05;;;;;;;8.50;4.53;;;0.20;99.90;;;;;;5029983;28;20025;-80
2022/01/22 04:42:34;;;;;;;6.53;3.50;;;0.20;99.90;;;;;;5030357;28;20419;-80
2022/01/22 04:45:06;;;;;;;6.13;3.97;;;0.20;99.90;;;;;;5029815;28;20033;-80
2022/01/22 04:55:38;;;;;;;6.40;4.10;;;0.20;99.90;;;;;;5029672;28;20036;-80
2022/01/22 04:58:05;;;;;;;9.43;4.13;;;0.30;99.90;;;;;;5029718;28;20108;-80
2022/01/22 05:00:36;;;;;;;11.27;4.37;;;0.20;99.90;;;;;;5029730;28;20117;-80
2022/01/22 05:03:02;;;;;;;8.17;4.10;;;0.40;99.90;;;;;;5030123;28;20029;-78
2022/01/22 05:05:28;;;;;;;8.40;4.37;;;0.40;99.90;;;;;;5028481;28;20695;-79
2022/01/22 05:07:54;;;;;;;8.77;4.40;;;0.30;99.90;;;;;;5013580;28;20038;-80
2022/01/22 05:10:21;;;;;;;10.00;4.17;;;0.30;99.90;;;;;;5010569;28;20030;-80
2022/01/22 05:12:47;;;;;;;7.37;4.00;;;0.40;99.90;;;;;;5009608;28;20038;-80
2022/01/22 05:15:14;;;;;;;9.73;4.57;;;0.30;99.90;;;;;;5016710;28;20470;-80
2022/01/22 05:17:42;;;;;;;8.73;4.87;;;0.30;99.90;;;;;;5029752;28;20029;-80
2022/01/22 05:20:15;;;;;;;10.23;5.20;;;0.30;99.90;;;;;;5029604;28;20029;-80
2022/01/22 05:26:06;;;;;;;8.70;4.63;;;0.20;99.90;;;;;;5026503;28;20045;-80
2022/01/22 05:38:23;;;;;;;11.43;5.35;;;0.20;99.90;;;;;;5032627;28;20040;-79
2022/01/22 05:40:49;;;;;;;10.87;6.03;;;0.20;99.90;;;;;;5032369;28;20139;-79
2022/01/22 05:43:15;;;;;;;8.67;4.80;;;0.20;99.90;;;;;;5032245;28;20402;-79
2022/01/22 05:45:42;;;;;;;7.13;5.57;;;0.20;99.90;;;;;;5031901;28;20021;-79
2022/01/22 05:48:07;;;;;;;7.97;5.03;;;0.30;99.90;;;;;;5031859;28;20066;-80
2022/01/22 05:50:44;;;;;;;9.30;6.13;;;0.20;99.90;;;;;;5031893;28;20184;-80
2022/01/22 05:53:28;;;;;;;11.07;5.43;;;0.30;99.90;;;;;;5034961;28;20022;-76
2022/01/22 06:01:08;;;;;;;9.90;5.77;;;0.10;99.90;;;;;;5028400;28;20036;-76
2022/01/22 06:03:34;;;;;;;14.30;5.83;;;0.20;99.90;;;;;;5035183;28;20386;-76
2022/01/22 06:06:00;;;;;;;9.27;6.03;;;0.20;99.90;;;;;;5035330;28;20021;-76
2022/01/22 06:08:30;;;;;;;10.17;5.13;;;0.10;99.90;;;;;;5035436;28;20354;-76
2022/01/22 06:10:58;;;;;;;9.10;5.13;;;0.20;99.90;;;;;;5035522;28;20028;-76
2022/01/22 06:13:31;;;;;;;9.70;6.00;;;0.30;99.90;;;;;;5034014;28;20029;-76
2022/01/22 06:15:56;;;;;;;9.80;5.83;;;0.20;99.90;;;;;;5035379;28;20033;-76
2022/01/22 06:18:22;;;;;;;10.23;6.27;;;0.20;99.90;;;;;;5035263;28;20022;-76
2022/01/22 06:20:47;;;;;;;10.07;6.70;;;0.20;99.90;;;;;;5029698;28;20022;-76
2022/01/22 06:23:13;;;;;;;12.00;5.77;;;0.20;99.90;;;;;;5029215;28;20040;-75
2022/01/22 06:25:38;;;;;;;8.83;6.03;;;0.30;99.90;;;;;;5035202;28;20097;-75
2022/01/22 06:28:04;;;;;;;8.87;5.90;;;0.40;99.90;;;;;;5035047;28;20381;-75
2022/01/22 06:30:30;;;;;;;8.30;5.70;;;0.40;99.90;;;;;;5033951;28;20025;-76
2022/01/22 06:32:56;;;;;;;12.77;5.97;;;0.40;99.90;;;;;;5033133;28;20052;-76
2022/01/22 06:35:21;;;;;;;13.93;6.70;;;0.40;99.90;;;;;;5033053;28;20025;-76
2022/01/22 06:37:47;;;;;;;10.90;6.13;;;0.40;99.90;;;;;;5031906;28;20101;-76
2022/01/22 06:42:58;;;;;;;11.87;6.27;;;0.40;99.90;;;;;;5004967;28;20052;-66
2022/01/22 06:45:24;;;;;;;13.60;6.87;;;0.30;99.90;;;;;;5030057;28;20060;-76
2022/01/22 06:48:07;;;;;;;12.13;6.53;;;0.40;99.90;;;;;;5026725;28;20490;-79
2022/01/22 06:50:33;;;;;;;9.77;6.40;;;0.40;99.90;;;;;;5030281;28;20553;-75
2022/01/22 06:52:59;;;;;;;11.90;6.70;;;0.40;99.90;;;;;;5032389;28;20108;-75
2022/01/22 06:55:45;;;;;;;10.07;6.07;;;0.40;99.90;;;;;;5031512;28;20017;-74
2022/01/22 06:58:11;;;;;;;10.87;6.33;;;0.30;99.90;;;;;;5029224;28;20100;-75
2022/01/22 07:00:36;;;;;;;9.57;5.80;;;0.40;99.90;;;;;;5028006;28;20111;-74
2022/01/22 07:03:03;;;;;;;10.23;7.23;;;0.50;99.90;;;;;;5029207;28;20104;-74
2022/01/22 07:05:29;;;;;;;11.73;6.40;;;0.50;99.90;;;;;;5029646;28;20056;-74
2022/01/22 07:07:54;;;;;;;10.23;6.60;;;0.50;99.90;;;;;;5029039;28;20026;-74
2022/01/22 07:10:20;;;;;;;10.33;6.20;;;0.50;99.90;;;;;;5027966;28;20060;-74
2022/01/22 07:12:46;;;;;;;10.43;6.67;;;0.50;99.90;;;;;;5023816;28;20068;-74
2022/01/22 07:15:11;;;;;;;11.47;6.17;;;0.50;99.90;;;;;;5009632;28;20041;-74
2022/01/22 07:17:39;;;;;;;7.93;6.37;;;0.50;99.90;;;;;;5009800;28;20022;-75
2022/01/22 07:20:13;;;;;;;11.10;7.47;;;0.50;99.90;;;;;;5014310;28;20021;-73
2022/01/22 07:22:49;;;;;;;14.20;6.60;;;0.40;99.90;;;;;;5031779;28;20057;-75
2022/01/22 07:25:15;;;;;;;9.17;6.73;;;0.30;99.90;;;;;;5010571;28;20052;-74
2022/01/22 07:27:41;;;;;;;11.47;6.70;;;0.40;99.90;;;;;;5015175;28;20056;-73
2022/01/22 07:30:07;;;;;;;10.33;6.77;;;0.30;99.90;;;;;;5031351;28;20083;-74
2022/01/22 07:32:36;;;;;;;9.20;6.50;;;0.40;99.90;;;;;;5030452;28;20083;-74
2022/01/22 07:35:04;;;;;;;9.53;7.23;;;0.40;99.90;;;;;;5031655;28;20017;-74
2022/01/22 07:37:29;;;;;;;11.53;7.50;;;0.50;99.90;;;;;;5031379;28;20125;-75
2022/01/22 07:39:55;;;;;;;9.67;7.20;;;0.40;99.90;;;;;;5029601;28;20557;-74
2022/01/22 07:42:21;;;;;;;12.73;6.33;;;0.40;99.90;;;;;;5025497;28;20481;-74
2022/01/22 07:44:47;;;;;;;13.00;6.60;;;0.40;99.90;;;;;;5030858;28;20539;-74
2022/01/22 07:47:12;;;;;;;12.80;7.03;;;0.40;99.90;;;;;;5028311;28;20032;-72
2022/01/22 07:49:38;;;;;;;13.50;7.03;;;0.30;99.90;;;;;;5027194;28;20108;-74
2022/01/22 07:52:04;;;;;;;12.13;7.13;;;0.30;99.90;;;;;;5030993;28;20091;-74
2022/01/22 07:54:32;;;;;;;16.87;7.43;;;0.40;99.90;;;;;;5030974;28;20033;-74
2022/01/22 07:56:59;;;;;;;9.43;6.80;;;0.30;99.90;;;;;;5031114;28;20033;-74
2022/01/22 07:59:24;;;;;;;11.40;8.10;;;0.40;99.90;;;;;;5029026;28;20029;-74
2022/01/22 08:01:50;;;;;;;10.20;7.30;;;0.30;99.90;;;;;;5030881;28;20029;-74
2022/01/22 08:04:23;;;;;;;11.17;6.43;;;0.40;99.90;;;;;;5030429;28;20076;-75
2022/01/22 08:06:49;;;;;;;10.43;6.80;;;0.50;99.90;;;;;;5030337;28;20017;-75
2022/01/22 08:09:14;;;;;;;12.63;6.57;;;0.40;99.90;;;;;;5030406;28;20038;-74
2022/01/22 08:11:40;;;;;;;11.10;6.53;;;0.40;99.90;;;;;;5030765;28;20088;-75
2022/01/22 08:14:08;;;;;;;12.30;6.67;;;0.40;99.90;;;;;;5030480;28;20105;-75
2022/01/22 08:16:34;;;;;;;11.87;7.37;;;0.50;99.90;;;;;;5030397;28;20021;-75
2022/01/22 08:19:00;;;;;;;12.90;6.83;;;0.40;99.90;;;;;;5030465;28;20040;-75
2022/01/22 08:21:26;;;;;;;11.10;6.90;;;0.40;99.90;;;;;;5030000;28;20108;-75
2022/01/22 08:23:51;;;;;;;9.87;6.57;;;0.40;99.90;;;;;;5030063;28;20056;-76
2022/01/22 08:26:21;;;;;;;13.97;7.10;;;0.40;99.90;;;;;;5030572;28;20410;-75
2022/01/22 08:28:57;;;;;;;12.20;6.63;;;0.40;99.90;;;;;;5030420;28;20045;-75
2022/01/22 08:36:49;;;;;;;12.47;6.83;;;0.60;99.90;;;;;;5007579;28;20088;-76
2022/01/22 08:39:17;;;;;;;11.83;7.03;;;0.70;99.90;;;;;;5030327;28;20033;-72
2022/01/22 08:41:43;;;;;;;13.03;6.83;;;0.70;99.90;;;;;;5026222;28;20018;-75
2022/01/22 08:44:10;;;;;;;12.67;6.50;;;0.60;99.90;;;;;;5010305;28;20026;-75
2022/01/22 08:46:36;;;;;;;11.70;6.70;;;0.60;99.90;;;;;;5012998;28;20057;-75
2022/01/22 08:49:04;;;;;;;11.00;6.50;;;0.70;99.90;;;;;;5013092;28;20078;-75
2022/01/22 08:51:32;;;;;;;13.10;6.67;;;0.60;99.90;;;;;;5029340;28;20395;-75
2022/01/22 08:54:00;;;;;;;12.63;7.30;;;0.70;99.90;;;;;;5030644;28;20032;-75
2022/01/22 08:56:26;;;;;;;12.03;7.10;;;0.70;99.90;;;;;;5030630;28;20021;-76
2022/01/22 08:58:52;;;;;;;10.53;6.90;;;0.60;99.90;;;;;;5030446;28;20028;-76
2022/01/22 09:01:17;;;;;;;11.67;7.20;;;0.60;99.90;;;;;;5032677;28;20033;-75
2022/01/22 09:03:43;;;;;;;14.57;7.50;;;0.60;99.90;;;;;;5034074;28;20049;-75
2022/01/22 09:06:11;;;;;;;10.13;6.70;;;0.70;99.90;;;;;;5033304;28;20025;-75
2022/01/22 09:08:37;;;;;;;10.23;7.10;;;0.70;99.90;;;;;;5035175;28;20021;-75
2022/01/22 09:11:02;;;;;;;9.50;6.67;;;0.70;99.90;;;;;;5034764;28;20467;-74
2022/01/22 09:13:28;;;;;;;14.13;7.47;;;0.70;99.90;;;;;;5034951;28;20033;-75
2022/01/22 09:15:55;;;;;;;10.33;7.13;;;0.80;99.90;;;;;;5035093;28;20378;-75
2022/01/22 09:18:22;;;;;;;10.77;7.27;;;0.70;99.90;;;;;;5034603;28;20083;-76
2022/01/22 09:23:17;;;;;;;10.13;6.67;;;0.60;99.90;;;;;;5034468;28;20028;-75
2022/01/22 09:25:44;;;;;;;11.47;7.37;;;0.60;99.90;;;;;;5034397;28;20025;-74
2022/01/22 09:28:13;;;;;;;12.73;7.43;;;0.70;99.90;;;;;;5033871;28;20545;-75
2022/01/22 09:30:40;;;;;;;12.20;7.40;;;0.70;99.90;;;;;;5034068;28;20612;-75
2022/01/22 09:33:07;;;;;;;10.50;7.10;;;0.70;99.90;;;;;;5034385;28;20021;-75
2022/01/22 09:35:33;;;;;;;12.33;8.27;;;0.70;99.90;;;;;;5034238;28;20034;-76
2022/01/22 09:37:59;;;;;;;10.40;7.17;;;0.70;99.90;;;;;;5032754;28;20056;-75
2022/01/22 09:40:29;;;;;;;10.07;6.63;;;0.80;99.90;;;;;;5035364;28;20057;-75
2022/01/22 09:42:58;;;;;;;11.87;7.10;;;0.80;99.90;;;;;;5035614;28;20048;-74
2022/01/22 09:45:24;;;;;;;12.43;7.40;;;0.80;99.90;;;;;;5035432;28;20025;-74
2022/01/22 09:47:50;;;;;;;11.33;6.90;;;0.90;99.90;;;;;;5035607;28;20443;-75
2022/01/22 09:50:17;;;;;;;10.27;6.80;;;0.80;99.90;;;;;;5034275;28;20378;-74
2022/01/22 09:52:45;;;;;;;9.60;7.17;;;0.80;99.90;;;;;;5035465;28;20487;-73
2022/01/22 09:55:11;;;;;;;10.80;6.43;;;0.80;99.90;;;;;;5035558;28;20362;-74
2022/01/22 09:57:37;;;;;;;13.47;7.27;;;0.90;99.90;;;;;;5035294;28;20022;-74
2022/01/22 10:00:09;;;;;;;11.50;6.83;;;0.90;99.90;;;;;;5035290;28;20378;-74
2022/01/22 10:02:45;;;;;;;9.97;6.70;;;0.80;99.90;;;;;;5034342;28;20476;-74
2022/01/22 10:05:35;;;;;;;10.57;6.50;;;0.90;99.90;;;;;;5035157;28;20198;-75
2022/01/22 10:08:21;;;;;;;10.43;6.27;;;0.90;99.90;;;;;;5035143;28;20080;-75
2022/01/22 10:10:48;;;;;;;12.30;6.67;;;0.90;99.90;;;;;;5034824;28;20025;-74
2022/01/22 10:13:14;;;;;;;10.30;6.90;;;0.90;99.90;;;;;;5030386;28;20082;-76
2022/01/22 10:15:41;;;;;;;10.83;6.50;;;0.80;99.90;;;;;;5033153;28;20053;-76
2022/01/22 10:18:07;;;;;;;12.87;6.53;;;0.90;99.90;;;;;;5032845;28;20048;-77
2022/01/22 10:20:35;;;;;;;9.03;6.13;;;0.90;99.90;;;;;;5026644;28;20077;-77
2022/01/22 10:23:02;;;;;;;10.13;6.37;;;1.00;99.90;;;;;;5031164;28;20037;-74
2022/01/22 10:25:40;;;;;;;10.93;7.40;;;1.10;99.90;;;;;;5028779;28;20035;-75
2022/01/22 10:28:14;;;;;;;12.60;7.00;;;1.10;99.90;;;;;;5030122;28;20044;-75
2022/01/22 10:30:43;;;;;;;10.35;7.03;;;1.10;99.90;;;;;;5030135;28;20117;-75
2022/01/22 10:33:36;;;;;;;10.43;6.17;;;1.10;99.90;;;;;;5030995;28;20044;-75
2022/01/22 10:36:21;;;;;;;9.93;6.03;;;1.20;99.90;;;;;;5031846;28;20025;-76
2022/01/22 10:38:52;;;;;;;9.68;6.43;;;1.10;99.90;;;;;;5028293;28;20021;-76
2022/01/22 10:41:31;;;;;;;10.80;6.50;;;1.10;99.90;;;;;;5030961;28;20057;-74
2022/01/22 10:43:58;;;;;;;8.60;6.03;;;1.00;99.90;;;;;;5029396;28;20427;-74
2022/01/22 10:46:33;;;;;;;8.80;6.27;;;1.10;99.90;;;;;;5031345;28;20390;-75
2022/01/22 10:49:04;;;;;;;8.77;6.20;;;1.00;99.90;;;;;;5031304;28;20025;-74
2022/01/22 10:51:31;;;;;;;9.87;6.07;;;1.10;99.90;;;;;;5028784;28;20076;-74
2022/01/22 10:54:02;;;;;;;9.30;6.00;;;1.10;99.90;;;;;;5029754;28;20030;-73
2022/01/22 10:56:32;;;;;;;9.47;6.50;;;1.20;99.90;;;;;;5031205;28;20025;-74
2022/01/22 10:59:17;;;;;;;9.27;5.50;;;1.20;99.90;;;;;;5030746;28;20057;-74
2022/01/22 11:01:59;;;;;;;9.80;6.30;;;1.30;99.90;;;;;;5028196;28;20459;-74
2022/01/22 11:04:45;;;;;;;10.30;6.37;;;1.30;99.90;;;;;;5031946;28;20038;-75
2022/01/22 11:07:19;;;;;;;8.38;6.00;;;1.30;99.90;;;;;;5031401;28;20675;-75
2022/01/22 11:09:45;;;;;;;12.97;6.27;;;1.30;99.90;;;;;;5032013;28;20033;-75
2022/01/22 11:12:11;;;;;;;12.70;6.60;;;1.40;99.90;;;;;;5032179;28;20025;-74
2022/01/22 11:14:38;;;;;;;10.10;5.87;;;1.40;99.90;;;;;;5021690;28;20056;-74
2022/01/22 11:17:06;;;;;;;10.23;6.00;;;1.40;99.90;;;;;;5020282;28;20036;-74
2022/01/22 11:19:33;;;;;;;9.53;6.57;;;1.40;99.90;;;;;;5030371;28;20034;-74
2022/01/22 11:22:13;;;;;;;8.03;5.83;;;1.40;99.90;;;;;;5020228;28;20029;-74
2022/01/22 11:24:40;;;;;;;11.80;6.40;;;1.40;99.90;;;;;;5011147;28;20038;-74
2022/01/22 11:27:08;;;;;;;11.07;6.90;;;1.40;99.90;;;;;;5011193;28;20122;-74
2022/01/22 11:29:41;;;;;;;11.93;6.07;;;1.40;99.90;;;;;;5012244;28;20108;-75
2022/01/22 11:32:11;;;;;;;7.93;5.50;;;1.40;99.90;;;;;;5024076;28;20017;-74
2022/01/22 11:34:39;;;;;;;11.50;6.50;;;1.50;99.90;;;;;;5031707;28;20079;-74
2022/01/22 11:37:25;;;;;;;9.97;6.13;;;1.40;99.90;;;;;;5032045;28;20025;-77
2022/01/22 11:40:11;;;;;;;9.90;6.30;;;1.30;99.90;;;;;;5031818;28;20029;-74
2022/01/22 11:43:06;;;;;;;9.07;6.15;;;1.30;99.90;;;;;;5029972;28;20032;-74
2022/01/22 11:45:42;;;;;;;11.33;7.00;;;1.40;99.90;;;;;;5068868;28;20391;-74
2022/01/22 11:48:13;;;;;;;10.30;6.33;;;1.40;99.90;;;;;;5068503;28;20052;-73
2022/01/22 11:50:40;;;;;;;12.07;6.57;;;1.40;99.90;;;;;;5068099;28;20024;-74
2022/01/22 11:53:29;;;;;;;8.17;6.20;;;1.40;99.90;;;;;;5067629;28;20044;-74
2022/01/22 11:56:10;;;;;;;9.60;6.27;;;1.50;99.90;;;;;;5068184;28;20435;-74
2022/01/22 11:59:14;;;;;;;11.13;6.87;;;1.60;99.90;;;;;;5068016;28;20031;-74
2022/01/22 12:01:50;;;;;;;13.37;7.57;;;1.50;99.90;;;;;;5068027;28;20043;-74
2022/01/22 12:04:17;;;;;;;12.87;6.93;;;1.50;99.90;;;;;;5066481;28;20473;-74
2022/01/22 12:07:04;;;;;;;10.90;7.13;;;1.50;99.90;;;;;;5067867;28;20029;-74
2022/01/22 12:09:32;;;;;;;12.73;8.23;;;1.50;99.90;;;;;;5066709;28;20124;-74
2022/01/22 12:15:04;;;;;;;12.20;7.30;;;1.40;99.90;;;;;;5067815;28;20116;-74
2022/01/22 12:17:49;;;;;;;12.13;7.17;;;1.40;99.90;;;;;;5066497;28;20425;-73
2022/01/22 12:21:30;;;;;;;11.52;7.57;;;1.40;99.90;;;;;;5067472;28;20567;-73
2022/01/22 12:23:28;;;;;;;10.50;6.70;;;1.40;99.90;;;;;;5067655;28;20044;-74
2022/01/22 12:25:54;;;;;;;12.03;7.37;;;1.30;99.90;;;;;;5068086;28;20107;-74
2022/01/22 12:28:39;;;;;;;13.37;7.37;;;1.40;99.90;;;;;;5067862;28;20748;-75
2022/01/22 12:31:08;;;;;;;11.40;7.60;;;1.30;99.90;;;;;;5067387;28;20090;-74
2022/01/22 12:33:33;;;;;;;10.87;7.17;;;1.40;99.90;;;;;;5066062;28;20035;-74
2022/01/22 12:35:59;;;;;;;11.70;7.63;;;1.30;99.90;;;;;;5067130;28;20107;-74
2022/01/22 12:38:35;;;;;;;11.07;7.53;;;1.30;99.90;;;;;;5067078;28;20521;-73
2022/01/22 12:41:15;;;;;;;;;;;1.30;99.90;;;;;;5067649;28;20478;-74
2022/01/22 12:43:43;;;;;;;11.83;6.70;;;1.40;99.90;;;;;;5066859;28;19916;-73
2022/01/22 12:46:09;;;;;;;12.03;7.10;;;1.40;99.90;;;;;;5067239;28;20017;-73
2022/01/22 12:48:38;;;;;;;10.93;7.07;;;1.50;99.90;;;;;;5066891;28;20525;-74
2022/01/22 12:51:06;;;;;;;12.17;8.00;;;1.60;99.90;;;;;;5066747;28;20043;-73
2022/01/22 12:53:33;;;;;;;11.07;7.77;;;1.50;99.90;;;;;;5066436;28;20036;-74
2022/01/22 12:58:33;;;;;;;12.00;7.67;;;1.40;99.90;;;;;;5055388;28;20465;-83
2022/01/22 13:01:18;;;;;;;15.97;8.47;;;1.40;99.90;;;;;;5054826;28;20025;-84
2022/01/22 13:03:47;;;;;;;14.82;8.65;;;1.40;99.90;;;;;;5075488;28;20027;-83
2022/01/22 13:06:13;;;;;;;13.53;8.03;;;1.30;99.90;;;;;;5075549;28;20078;-83
2022/01/22 13:08:39;;;;;;;13.57;8.57;;;1.30;99.90;;;;;;5075271;28;20013;-82
2022/01/22 13:11:10;;;;;;;12.03;8.17;;;1.30;99.90;;;;;;5074962;28;20361;-81
2022/01/22 13:13:38;;;;;;;13.70;8.53;;;1.30;99.90;;;;;;5075164;28;20397;-80
2022/01/22 13:16:12;;;;;;;13.40;8.60;;;1.30;99.90;;;;;;5075529;28;20020;-81
2022/01/22 13:18:59;;;;;;;12.47;8.47;;;1.30;99.90;;;;;;5075113;28;20103;-80
2022/01/22 13:21:31;;;;;;;12.80;8.63;;;1.30;99.90;;;;;;5075242;28;20062;-80
2022/01/22 13:24:04;;;;;;;12.37;8.30;;;1.30;99.90;;;;;;5073133;28;20024;-81
2022/01/22 13:26:51;;;;;;;12.13;7.60;;;1.30;99.90;;;;;;5074789;28;20142;-76
2022/01/22 13:29:33;;;;;;;13.20;8.67;;;1.40;99.90;;;;;;5074868;28;20024;-80
2022/01/22 13:32:10;;;;;;;15.73;8.77;;;1.40;99.90;;;;;;5066178;28;20029;-76
2022/01/22 13:48:29;;;;;;;12.47;8.60;;;1.40;99.90;;;;;;5054454;28;20428;-80
2022/01/22 13:50:55;;;;;;;13.07;8.50;;;1.40;99.90;;;;;;5053032;28;20021;-80
2022/01/22 13:53:21;;;;;;;14.17;8.67;;;1.40;99.90;;;;;;5054696;28;20163;-80
2022/01/22 13:56:00;;;;;;;17.97;9.20;;;1.30;99.90;;;;;;5053361;28;20350;-80
2022/01/22 13:58:26;;;;;;;14.13;8.37;;;1.30;99.90;;;;;;5054412;28;20033;-80
2022/01/22 14:00:52;;;;;;;13.03;8.47;;;1.20;99.90;;;;;;5054363;28;20539;-80
2022/01/22 14:03:29;;;;;;;13.07;8.33;;;1.30;99.90;;;;;;5053996;28;20029;-80
2022/01/22 14:05:55;;;;;;;12.93;8.87;;;1.30;99.90;;;;;;5054927;28;20025;-79
2022/01/22 14:08:30;;;;;;;13.60;8.73;;;1.30;99.90;;;;;;5044911;28;20095;-75
2022/01/22 14:11:06;;;;;;;;;;;1.30;99.90;;;;;;5050562;28;20029;-75
2022/01/22 14:13:32;;;;;;;12.35;8.27;;;1.40;99.90;;;;;;5048018;28;20265;-76
2022/01/22 14:16:14;;;;;;;10.93;8.57;;;1.40;99.90;;;;;;5051487;28;20033;-77
2022/01/22 14:18:41;;;;;;;12.70;8.33;;;1.30;99.90;;;;;;5053521;28;20025;-74
2022/01/22 14:21:14;;;;;;;13.83;8.63;;;1.40;99.90;;;;;;5053256;28;20025;-74
2022/01/22 14:23:39;;;;;;;14.03;8.87;;;1.30;99.90;;;;;;5054214;28;20029;-78
2022/01/22 14:26:18;;;;;;;14.90;9.00;;;1.30;99.90;;;;;;5054231;28;20061;-79
2022/01/22 14:28:46;;;;;;;12.10;8.87;;;1.30;99.90;;;;;;5054675;28;20045;-77
2022/01/22 14:31:32;;;;;;;12.73;8.87;;;1.40;99.90;;;;;;5054283;28;20151;-78
2022/01/22 14:34:06;;;;;;;15.30;9.05;;;1.40;99.90;;;;;;5054886;28;20031;-78
2022/01/22 14:36:43;;;;;;;13.02;8.73;;;1.30;99.90;;;;;;5054579;28;20076;-77
2022/01/22 14:44:49;;;;;;;12.93;8.83;;;1.30;99.90;;;;;;5047821;28;20056;-81
2022/01/22 14:47:16;;;;;;;15.27;9.27;;;1.30;99.90;;;;;;5045995;28;20025;-80
2022/01/22 14:49:46;;;;;;;13.27;9.33;;;1.20;99.90;;;;;;5046281;28;20028;-80
2022/01/22 14:52:14;;;;;;;12.90;9.63;;;1.30;99.90;;;;;;5045211;28;20390;-79
2022/01/22 14:54:43;;;;;;;14.53;9.77;;;1.30;99.90;;;;;;5048432;28;20066;-80
2022/01/22 14:57:11;;;;;;;15.37;10.27;;;1.30;99.90;;;;;;5042913;28;20028;-80
2022/01/22 14:59:40;;;;;;;17.70;10.13;;;1.30;99.90;;;;;;5044464;28;20468;-80
2022/01/22 15:02:13;;;;;;;15.87;9.40;;;1.20;99.90;;;;;;5048656;28;20037;-80